createdAt,value
2023-06-11T00:00:11.094Z,9.58
2023-06-11T00:01:13.105Z,9.42
2023-06-11T00:02:11.165Z,9.60
2023-06-11T00:03:11.279Z,9.20
2023-06-11T00:04:11.178Z,10.14
2023-06-11T00:05:12.537Z,10.58
2023-06-11T00:06:11.102Z,12.16
2023-06-11T00:07:11.157Z,10.46
2023-06-11T00:08:11.179Z,10.82
2023-06-11T00:09:11.093Z,10.88
2023-06-11T00:10:11.101Z,10.80
2023-06-11T00:11:11.113Z,9.18
2023-06-11T00:12:11.164Z,9.82
2023-06-11T00:13:11.100Z,10.58
2023-06-11T00:14:11.090Z,7.96
2023-06-11T00:15:11.302Z,10.80
2023-06-11T00:16:11.111Z,10.18
2023-06-11T00:17:11.181Z,10.82
2023-06-11T00:18:11.121Z,10.92
2023-06-11T00:19:11.103Z,11.40
2023-06-11T00:20:15.114Z,10.28
2023-06-11T00:21:11.102Z,10.68
2023-06-11T00:22:11.102Z,10.26
2023-06-11T00:23:11.106Z,10.52
2023-06-11T00:24:15.226Z,10.34
2023-06-11T00:25:11.458Z,10.08
2023-06-11T00:26:12.111Z,9.18
2023-06-11T00:27:11.128Z,11.10
2023-06-11T00:28:11.105Z,11.12
2023-06-11T00:29:11.111Z,9.60
2023-06-11T00:30:11.104Z,10.68
2023-06-11T00:31:11.159Z,8.72
2023-06-11T00:32:11.223Z,9.70
2023-06-11T00:33:11.125Z,9.04
2023-06-11T00:34:11.103Z,9.72
2023-06-11T00:35:12.385Z,11.04
2023-06-11T00:36:11.109Z,10.02
2023-06-11T00:37:11.118Z,9.72
2023-06-11T00:38:11.106Z,10.78
2023-06-11T00:39:11.112Z,9.62
2023-06-11T00:40:11.125Z,9.86
2023-06-11T00:41:11.106Z,9.94
2023-06-11T00:42:11.120Z,10.58
2023-06-11T00:43:12.097Z,10.60
2023-06-11T00:44:11.105Z,11.16
2023-06-11T00:45:11.353Z,10.84
2023-06-11T00:46:15.119Z,9.52
2023-06-11T00:47:11.143Z,10.10
2023-06-11T00:48:11.151Z,9.64
2023-06-11T00:49:11.098Z,10.88
2023-06-11T00:50:11.104Z,11.02
2023-06-11T00:51:11.110Z,9.22
2023-06-11T00:52:14.103Z,8.94
2023-06-11T00:53:11.101Z,11.18
2023-06-11T00:54:13.102Z,11.66
2023-06-11T00:55:11.378Z,9.78
2023-06-11T00:56:11.101Z,10.88
2023-06-11T00:57:11.157Z,10.04
2023-06-11T00:58:15.164Z,10.18
2023-06-11T00:59:11.102Z,10.44
2023-06-11T01:00:15.126Z,10.84
2023-06-11T01:01:11.096Z,11.44
2023-06-11T01:02:15.069Z,10.62
2023-06-11T01:03:13.068Z,10.50
2023-06-11T01:04:16.161Z,11.38
2023-06-11T01:05:11.468Z,11.44
2023-06-11T01:06:13.078Z,9.12
2023-06-11T01:07:11.072Z,10.00
2023-06-11T01:08:14.079Z,12.14
2023-06-11T01:09:11.063Z,10.26
2023-06-11T01:10:11.068Z,11.10
2023-06-11T01:11:17.067Z,12.10
2023-06-11T01:12:13.064Z,11.16
2023-06-11T01:13:11.064Z,11.92
2023-06-11T01:14:11.070Z,11.82
2023-06-11T01:15:11.296Z,11.78
2023-06-11T01:16:15.070Z,11.74
2023-06-11T01:17:16.151Z,10.62
2023-06-11T01:18:17.070Z,13.04
2023-06-11T01:19:19.067Z,10.98
2023-06-11T01:20:19.064Z,10.30
2023-06-11T01:21:14.070Z,10.84
2023-06-11T01:22:16.067Z,11.46
2023-06-11T01:23:21.070Z,12.40
2023-06-11T01:24:19.327Z,12.00
2023-06-11T01:25:21.069Z,13.50
2023-06-11T01:26:16.074Z,10.56
2023-06-11T01:27:21.070Z,11.18
2023-06-11T01:28:11.093Z,11.68
2023-06-11T01:29:11.070Z,11.00
2023-06-11T01:30:13.088Z,11.26
2023-06-11T01:31:16.123Z,12.02
2023-06-11T01:32:11.070Z,12.10
2023-06-11T01:33:11.094Z,11.50
2023-06-11T01:34:11.137Z,12.66
2023-06-11T01:35:11.264Z,10.72
2023-06-11T01:36:11.073Z,11.78
2023-06-11T01:37:11.089Z,11.66
2023-06-11T01:38:13.149Z,11.50
2023-06-11T01:39:11.072Z,11.88
2023-06-11T01:40:11.073Z,11.54
2023-06-11T01:41:12.068Z,10.56
2023-06-11T01:42:11.072Z,11.44
2023-06-11T01:43:11.072Z,11.48
2023-06-11T01:44:11.086Z,10.88
2023-06-11T01:45:11.175Z,11.72
2023-06-11T01:46:11.107Z,9.80
2023-06-11T01:47:11.068Z,10.38
2023-06-11T01:48:11.075Z,9.90
2023-06-11T01:49:11.078Z,10.66
2023-06-11T01:50:11.074Z,8.82
2023-06-11T01:51:11.079Z,10.40
2023-06-11T01:52:11.084Z,10.70
2023-06-11T01:53:11.075Z,10.52
2023-06-11T01:54:11.091Z,10.46
2023-06-11T01:55:11.315Z,10.10
2023-06-11T01:56:13.070Z,10.56
2023-06-11T01:57:11.096Z,10.86
2023-06-11T01:58:11.079Z,9.74
2023-06-11T01:59:11.077Z,9.72
2023-06-11T02:00:11.093Z,10.08
2023-06-11T02:01:13.083Z,9.24
2023-06-11T02:02:11.177Z,12.12
2023-06-11T02:03:11.285Z,10.16
2023-06-11T02:04:11.217Z,9.76
2023-06-11T02:05:11.435Z,10.04
2023-06-11T02:06:11.072Z,11.40
2023-06-11T02:07:11.076Z,10.42
2023-06-11T02:08:11.074Z,9.40
2023-06-11T02:09:11.070Z,10.00
2023-06-11T02:10:11.099Z,8.82
2023-06-11T02:11:11.102Z,9.98
2023-06-11T02:12:11.082Z,10.80
2023-06-11T02:13:11.081Z,8.76
2023-06-11T02:14:11.082Z,9.82
2023-06-11T02:15:11.577Z,11.10
2023-06-11T02:16:11.105Z,9.94
2023-06-11T02:17:11.084Z,8.94
2023-06-11T02:18:11.164Z,9.12
2023-06-11T02:19:11.076Z,9.92
2023-06-11T02:20:11.077Z,10.24
2023-06-11T02:21:11.077Z,10.06
2023-06-11T02:22:11.084Z,9.10
2023-06-11T02:23:11.082Z,8.16
2023-06-11T02:24:11.108Z,8.42
2023-06-11T02:25:11.373Z,9.50
2023-06-11T02:26:11.084Z,10.04
2023-06-11T02:27:11.086Z,10.26
2023-06-11T02:28:11.085Z,9.82
2023-06-11T02:29:11.092Z,10.48
2023-06-11T02:30:11.080Z,12.00
2023-06-11T02:31:11.085Z,11.88
2023-06-11T02:32:11.179Z,11.72
2023-06-11T02:33:11.103Z,10.32
2023-06-11T02:34:11.083Z,10.84
2023-06-11T02:35:11.289Z,10.22
2023-06-11T02:36:11.077Z,10.30
2023-06-11T02:37:11.082Z,11.16
2023-06-11T02:38:11.082Z,10.36
2023-06-11T02:39:11.079Z,9.00
2023-06-11T02:40:11.089Z,9.36
2023-06-11T02:41:11.080Z,8.94
2023-06-11T02:42:11.085Z,10.48
2023-06-11T02:43:11.086Z,9.70
2023-06-11T02:44:11.083Z,9.10
2023-06-11T02:45:11.451Z,8.48
2023-06-11T02:46:11.161Z,8.86
2023-06-11T02:47:11.090Z,9.74
2023-06-11T02:48:11.081Z,8.04
2023-06-11T02:49:11.122Z,8.44
2023-06-11T02:50:11.108Z,7.90
2023-06-11T02:51:11.083Z,9.36
2023-06-11T02:52:11.092Z,8.44
2023-06-11T02:53:11.097Z,7.90
2023-06-11T02:54:11.084Z,8.72
2023-06-11T02:55:11.426Z,9.10
2023-06-11T02:56:11.087Z,8.86
2023-06-11T02:57:11.102Z,8.38
2023-06-11T02:58:11.093Z,8.12
2023-06-11T02:59:11.094Z,8.98
2023-06-11T03:00:11.099Z,9.60
2023-06-11T03:01:11.141Z,9.72
2023-06-11T03:02:11.107Z,10.18
2023-06-11T03:03:11.149Z,8.54
2023-06-11T03:04:11.121Z,8.40
2023-06-11T03:05:11.479Z,9.72
2023-06-11T03:06:11.090Z,8.58
2023-06-11T03:07:11.088Z,8.42
2023-06-11T03:08:11.099Z,9.34
2023-06-11T03:09:11.091Z,8.80
2023-06-11T03:10:11.097Z,8.26
2023-06-11T03:11:11.105Z,7.70
2023-06-11T03:12:11.090Z,8.10
2023-06-11T03:13:11.090Z,8.76
2023-06-11T03:14:11.093Z,8.06
2023-06-11T03:15:11.397Z,9.42
2023-06-11T03:16:11.145Z,8.40
2023-06-11T03:17:11.101Z,8.06
2023-06-11T03:18:11.088Z,8.68
2023-06-11T03:19:11.100Z,8.24
2023-06-11T03:20:11.109Z,8.38
2023-06-11T03:21:11.089Z,9.04
2023-06-11T03:22:11.095Z,7.88
2023-06-11T03:23:11.094Z,9.66
2023-06-11T03:24:11.159Z,8.82
2023-06-11T03:25:11.431Z,8.30
2023-06-11T03:26:11.100Z,8.20
2023-06-11T03:27:11.102Z,8.84
2023-06-11T03:28:11.095Z,8.90
2023-06-11T03:29:11.098Z,8.18
2023-06-11T03:30:11.105Z,9.30
2023-06-11T03:31:11.137Z,8.04
2023-06-11T03:32:13.113Z,10.26
2023-06-11T03:33:11.143Z,10.04
2023-06-11T03:34:11.109Z,9.06
2023-06-11T03:35:11.670Z,9.12
2023-06-11T03:36:11.097Z,9.60
2023-06-11T03:37:11.087Z,9.02
2023-06-11T03:38:11.094Z,9.34
2023-06-11T03:39:11.092Z,8.72
2023-06-11T03:40:11.091Z,9.46
2023-06-11T03:41:11.095Z,9.14
2023-06-11T03:42:11.091Z,8.96
2023-06-11T03:43:11.104Z,9.76
2023-06-11T03:44:11.093Z,8.74
2023-06-11T03:45:11.301Z,9.82
2023-06-11T03:46:11.098Z,10.38
2023-06-11T03:47:11.182Z,9.36
2023-06-11T03:48:11.196Z,10.58
2023-06-11T03:49:11.099Z,10.10
2023-06-11T03:50:11.142Z,9.84
2023-06-11T03:51:11.103Z,9.84
2023-06-11T03:52:11.096Z,9.86
2023-06-11T03:53:11.109Z,9.24
2023-06-11T03:54:11.100Z,10.50
2023-06-11T03:55:11.271Z,9.60
2023-06-11T03:56:11.098Z,9.28
2023-06-11T03:57:11.097Z,9.66
2023-06-11T03:58:11.096Z,10.22
2023-06-11T03:59:11.102Z,9.22
2023-06-11T04:00:11.100Z,10.26
2023-06-11T04:01:11.065Z,9.04
2023-06-11T04:02:11.155Z,9.26
2023-06-11T04:03:11.210Z,9.82
2023-06-11T04:04:11.077Z,10.74
2023-06-11T04:05:11.322Z,9.82
2023-06-11T04:06:11.074Z,8.04
2023-06-11T04:07:11.061Z,10.14
2023-06-11T04:08:11.062Z,9.10
2023-06-11T04:09:11.078Z,9.32
2023-06-11T04:10:11.114Z,10.86
2023-06-11T04:11:11.081Z,9.76
2023-06-11T04:12:11.102Z,8.36
2023-06-11T04:13:11.064Z,8.72
2023-06-11T04:14:11.064Z,8.42
2023-06-11T04:15:11.322Z,9.36
2023-06-11T04:16:11.063Z,8.98
2023-06-11T04:17:11.105Z,8.80
2023-06-11T04:18:11.217Z,7.96
2023-06-11T04:19:11.063Z,8.52
2023-06-11T04:20:11.064Z,7.78
2023-06-11T04:21:11.072Z,9.16
2023-06-11T04:22:11.064Z,8.08
2023-06-11T04:23:11.068Z,9.20
2023-06-11T04:24:11.114Z,8.84
2023-06-11T04:25:11.370Z,7.80
2023-06-11T04:26:12.067Z,7.84
2023-06-11T04:27:11.089Z,7.90
2023-06-11T04:28:11.062Z,8.48
2023-06-11T04:29:11.069Z,8.54
2023-06-11T04:30:11.069Z,8.24
2023-06-11T04:31:11.107Z,7.40
2023-06-11T04:32:11.070Z,8.06
2023-06-11T04:33:11.134Z,7.58
2023-06-11T04:34:11.065Z,7.72
2023-06-11T04:35:13.697Z,8.84
2023-06-11T04:36:11.082Z,9.32
2023-06-11T04:37:11.070Z,7.74
2023-06-11T04:38:11.066Z,8.14
2023-06-11T04:39:11.069Z,7.92
2023-06-11T04:40:15.072Z,7.90
2023-06-11T04:41:16.076Z,8.64
2023-06-11T04:42:11.066Z,6.90
2023-06-11T04:43:11.073Z,8.86
2023-06-11T04:44:11.073Z,8.06
2023-06-11T04:45:13.350Z,8.64
2023-06-11T04:46:11.098Z,8.60
2023-06-11T04:47:11.070Z,7.46
2023-06-11T04:48:11.070Z,9.06
2023-06-11T04:49:11.073Z,8.62
2023-06-11T04:50:11.091Z,8.90
2023-06-11T04:51:11.072Z,7.96
2023-06-11T04:52:11.075Z,7.72
2023-06-11T04:53:11.081Z,8.58
2023-06-11T04:54:12.069Z,7.98
2023-06-11T04:55:11.579Z,8.60
2023-06-11T04:56:11.081Z,8.50
2023-06-11T04:57:11.072Z,8.76
2023-06-11T04:58:11.085Z,7.96
2023-06-11T04:59:11.083Z,8.32
2023-06-11T05:00:13.414Z,8.68
2023-06-11T05:01:11.068Z,7.68
2023-06-11T05:02:11.103Z,7.82
2023-06-11T05:03:11.114Z,8.08
2023-06-11T05:04:11.074Z,8.56
2023-06-11T05:05:11.330Z,7.44
2023-06-11T05:06:11.081Z,7.86
2023-06-11T05:07:11.069Z,8.12
2023-06-11T05:08:11.109Z,8.32
2023-06-11T05:09:11.109Z,8.16
2023-06-11T05:10:11.074Z,7.96
2023-06-11T05:11:11.086Z,8.08
2023-06-11T05:12:11.081Z,8.34
2023-06-11T05:13:11.083Z,9.18
2023-06-11T05:14:11.099Z,8.62
2023-06-11T05:15:11.405Z,9.06
2023-06-11T05:16:11.128Z,8.72
2023-06-11T05:17:11.082Z,8.58
2023-06-11T05:18:11.138Z,8.64
2023-06-11T05:19:11.083Z,7.78
2023-06-11T05:20:11.099Z,8.12
2023-06-11T05:21:11.089Z,8.84
2023-06-11T05:22:11.080Z,9.68
2023-06-11T05:23:11.099Z,8.84
2023-06-11T05:24:13.124Z,8.64
2023-06-11T05:25:11.518Z,8.76
2023-06-11T05:26:15.092Z,8.74
2023-06-11T05:27:11.104Z,7.60
2023-06-11T05:28:11.084Z,8.76
2023-06-11T05:29:11.081Z,9.18
2023-06-11T05:30:11.083Z,8.50
2023-06-11T05:31:11.087Z,8.44
2023-06-11T05:32:11.240Z,8.46
2023-06-11T05:33:13.106Z,8.08
2023-06-11T05:34:11.096Z,8.38
2023-06-11T05:35:11.528Z,8.76
2023-06-11T05:36:11.085Z,8.52
2023-06-11T05:37:11.093Z,7.60
2023-06-11T05:38:12.085Z,8.98
2023-06-11T05:39:11.083Z,8.78
2023-06-11T05:40:11.101Z,8.90
2023-06-11T05:41:11.081Z,9.86
2023-06-11T05:42:11.081Z,9.02
2023-06-11T05:43:11.092Z,7.36
2023-06-11T05:44:11.092Z,9.40
2023-06-11T05:45:11.586Z,9.26
2023-06-11T05:46:11.185Z,8.46
2023-06-11T05:47:11.137Z,7.26
2023-06-11T05:48:11.099Z,7.92
2023-06-11T05:49:11.084Z,7.52
2023-06-11T05:50:11.085Z,7.82
2023-06-11T05:51:11.081Z,7.22
2023-06-11T05:52:11.083Z,7.76
2023-06-11T05:53:11.088Z,8.02
2023-06-11T05:54:11.080Z,8.60
2023-06-11T05:55:11.421Z,8.58
2023-06-11T05:56:11.085Z,8.68
2023-06-11T05:57:21.083Z,7.84
2023-06-11T05:58:11.090Z,7.02
2023-06-11T05:59:11.104Z,7.64
2023-06-11T06:00:11.088Z,8.34
2023-06-11T06:01:11.085Z,7.36
2023-06-11T06:02:11.136Z,8.58
2023-06-11T06:03:11.168Z,7.24
2023-06-11T06:04:11.182Z,7.18
2023-06-11T06:05:11.304Z,7.12
2023-06-11T06:06:11.089Z,7.10
2023-06-11T06:07:11.081Z,7.56
2023-06-11T06:08:11.088Z,6.86
2023-06-11T06:09:11.094Z,7.60
2023-06-11T06:10:11.088Z,7.12
2023-06-11T06:11:11.095Z,6.16
2023-06-11T06:12:11.087Z,6.64
2023-06-11T06:13:11.101Z,8.74
2023-06-11T06:14:11.101Z,6.94
2023-06-11T06:15:11.267Z,7.20
2023-06-11T06:16:11.130Z,6.72
2023-06-11T06:17:11.097Z,7.88
2023-06-11T06:18:11.187Z,8.24
2023-06-11T06:19:11.089Z,7.78
2023-06-11T06:20:11.092Z,7.16
2023-06-11T06:21:11.091Z,8.06
2023-06-11T06:22:11.088Z,6.78
2023-06-11T06:23:11.099Z,7.38
2023-06-11T06:24:11.118Z,7.28
2023-06-11T06:25:11.510Z,7.62
2023-06-11T06:26:11.110Z,7.78
2023-06-11T06:27:11.088Z,6.72
2023-06-11T06:28:11.099Z,8.00
2023-06-11T06:29:13.098Z,8.98
2023-06-11T06:30:11.093Z,9.48
2023-06-11T06:31:12.132Z,6.14
2023-06-11T06:32:11.121Z,7.02
2023-06-11T06:33:11.213Z,7.12
2023-06-11T06:34:11.098Z,8.40
2023-06-11T06:35:11.378Z,7.30
2023-06-11T06:36:11.094Z,6.92
2023-06-11T06:37:11.089Z,7.36
2023-06-11T06:38:11.096Z,7.70
2023-06-11T06:39:11.133Z,6.78
2023-06-11T06:40:11.354Z,7.24
2023-06-11T06:41:11.114Z,7.16
2023-06-11T06:42:11.096Z,6.64
2023-06-11T06:43:11.093Z,7.90
2023-06-11T06:44:11.094Z,6.50
2023-06-11T06:45:11.428Z,7.06
2023-06-11T06:46:11.096Z,6.56
2023-06-11T06:47:11.100Z,8.22
2023-06-11T06:48:11.266Z,8.18
2023-06-11T06:49:11.097Z,7.24
2023-06-11T06:50:11.360Z,6.64
2023-06-11T06:51:11.102Z,8.00
2023-06-11T06:52:11.097Z,7.44
2023-06-11T06:53:11.101Z,7.44
2023-06-11T06:54:11.106Z,6.58
2023-06-11T06:55:11.107Z,6.46
2023-06-11T06:56:11.102Z,6.70
2023-06-11T06:57:12.120Z,6.50
2023-06-11T06:58:11.101Z,6.36
2023-06-11T06:59:11.105Z,6.30
2023-06-11T07:00:11.503Z,7.08
2023-06-11T07:01:11.120Z,7.18
2023-06-11T07:02:11.069Z,6.96
2023-06-11T07:03:11.071Z,6.40
2023-06-11T07:04:11.070Z,7.86
2023-06-11T07:05:11.108Z,6.76
2023-06-11T07:06:11.126Z,6.36
2023-06-11T07:07:11.071Z,6.62
2023-06-11T07:08:11.066Z,6.44
2023-06-11T07:09:11.079Z,6.42
2023-06-11T07:10:11.564Z,8.26
2023-06-11T07:11:11.081Z,6.70
2023-06-11T07:12:11.074Z,6.44
2023-06-11T07:13:11.074Z,7.36
2023-06-11T07:14:11.066Z,6.82
2023-06-11T07:15:11.072Z,7.14
2023-06-11T07:16:11.096Z,7.60
2023-06-11T07:17:11.066Z,6.74
2023-06-11T07:18:11.144Z,6.74
2023-06-11T07:19:11.071Z,6.92
2023-06-11T07:20:12.260Z,6.60
2023-06-11T07:21:11.070Z,6.98
2023-06-11T07:22:11.079Z,6.72
2023-06-11T07:23:11.070Z,7.50
2023-06-11T07:24:12.102Z,6.30
2023-06-11T07:25:11.068Z,7.20
2023-06-11T07:26:11.069Z,6.84
2023-06-11T07:27:11.073Z,8.28
2023-06-11T07:28:11.085Z,7.20
2023-06-11T07:29:13.082Z,6.82
2023-06-11T07:30:11.453Z,7.78
2023-06-11T07:31:11.119Z,8.20
2023-06-11T07:32:11.070Z,7.70
2023-06-11T07:33:11.094Z,6.82
2023-06-11T07:34:11.080Z,6.80
2023-06-11T07:35:11.073Z,6.64
2023-06-11T07:36:11.076Z,6.88
2023-06-11T07:37:11.092Z,6.66
2023-06-11T07:38:11.072Z,7.50
2023-06-11T07:39:11.077Z,6.82
2023-06-11T07:40:11.423Z,6.36
2023-06-11T07:41:11.074Z,7.06
2023-06-11T07:42:11.071Z,5.62
2023-06-11T07:43:11.089Z,7.58
2023-06-11T07:44:11.084Z,9.22
2023-06-11T07:45:11.082Z,8.48
2023-06-11T07:46:11.153Z,6.62
2023-06-11T07:47:11.073Z,8.14
2023-06-11T07:48:11.115Z,7.10
2023-06-11T07:49:11.080Z,8.94
2023-06-11T07:50:11.218Z,6.30
2023-06-11T07:51:11.072Z,6.86
2023-06-11T07:52:11.085Z,7.56
2023-06-11T07:53:11.078Z,8.96
2023-06-11T07:54:11.070Z,6.52
2023-06-11T07:55:11.076Z,6.46
2023-06-11T07:56:11.086Z,6.66
2023-06-11T07:57:11.319Z,6.76
2023-06-11T07:58:11.080Z,6.84
2023-06-11T07:59:11.074Z,6.10
2023-06-11T08:00:15.255Z,6.34
2023-06-11T08:01:11.081Z,9.24
2023-06-11T08:02:11.138Z,7.18
2023-06-11T08:03:11.133Z,7.08
2023-06-11T08:04:11.079Z,7.16
2023-06-11T08:05:11.080Z,6.60
2023-06-11T08:06:11.199Z,5.32
2023-06-11T08:07:11.078Z,7.08
2023-06-11T08:08:11.077Z,6.46
2023-06-11T08:09:11.078Z,6.40
2023-06-11T08:10:11.325Z,6.60
2023-06-11T08:11:11.088Z,7.10
2023-06-11T08:12:11.080Z,6.62
2023-06-11T08:13:11.078Z,6.96
2023-06-11T08:14:11.093Z,7.18
2023-06-11T08:15:11.093Z,6.52
2023-06-11T08:16:11.150Z,6.10
2023-06-11T08:17:11.125Z,7.40
2023-06-11T08:18:11.133Z,5.84
2023-06-11T08:19:11.080Z,6.46
2023-06-11T08:20:12.367Z,7.56
2023-06-11T08:21:11.084Z,6.18
2023-06-11T08:22:11.081Z,9.56
2023-06-11T08:23:11.084Z,6.68
2023-06-11T08:24:11.116Z,7.68
2023-06-11T08:25:11.087Z,7.78
2023-06-11T08:26:11.085Z,8.10
2023-06-11T08:27:11.077Z,7.16
2023-06-11T08:28:11.087Z,6.58
2023-06-11T08:29:11.088Z,5.94
2023-06-11T08:30:11.359Z,6.44
2023-06-11T08:31:11.083Z,7.88
2023-06-11T08:32:11.177Z,6.42
2023-06-11T08:33:11.169Z,6.68
2023-06-11T08:34:11.087Z,6.78
2023-06-11T08:35:11.090Z,7.10
2023-06-11T08:36:11.091Z,6.76
2023-06-11T08:37:11.090Z,6.86
2023-06-11T08:38:11.094Z,6.66
2023-06-11T08:39:11.090Z,7.04
2023-06-11T08:40:11.436Z,7.56
2023-06-11T08:41:11.092Z,7.24
2023-06-11T08:42:11.087Z,7.98
2023-06-11T08:43:11.082Z,7.10
2023-06-11T08:44:11.088Z,6.84
2023-06-11T08:45:11.082Z,7.06
2023-06-11T08:46:15.138Z,7.46
2023-06-11T08:47:11.086Z,6.96
2023-06-11T08:48:11.142Z,7.62
2023-06-11T08:49:15.092Z,7.06
2023-06-11T08:50:11.448Z,7.38
2023-06-11T08:51:11.090Z,7.42
2023-06-11T08:52:11.084Z,7.02
2023-06-11T08:53:11.085Z,6.90
2023-06-11T08:54:11.095Z,8.30
2023-06-11T08:55:11.081Z,8.00
2023-06-11T08:56:11.086Z,8.08
2023-06-11T08:57:12.092Z,8.98
2023-06-11T08:58:11.105Z,7.80
2023-06-11T08:59:11.084Z,7.36
2023-06-11T09:00:12.445Z,7.32
2023-06-11T09:01:13.110Z,6.98
2023-06-11T09:02:11.140Z,7.60
2023-06-11T09:03:11.123Z,8.24
2023-06-11T09:04:11.154Z,7.46
2023-06-11T09:05:11.082Z,7.06
2023-06-11T09:06:11.087Z,8.08
2023-06-11T09:07:11.084Z,7.24
2023-06-11T09:08:11.081Z,7.62
2023-06-11T09:09:13.119Z,6.64
2023-06-11T09:10:11.457Z,8.08
2023-06-11T09:11:11.096Z,7.52
2023-06-11T09:12:11.087Z,6.88
2023-06-11T09:13:11.090Z,7.50
2023-06-11T09:14:11.093Z,7.00
2023-06-11T09:15:11.093Z,8.58
2023-06-11T09:16:11.111Z,8.38
2023-06-11T09:17:15.089Z,7.12
2023-06-11T09:18:11.142Z,8.58
2023-06-11T09:19:16.089Z,7.82
2023-06-11T09:20:11.423Z,7.78
2023-06-11T09:21:12.092Z,7.72
2023-06-11T09:22:11.094Z,7.14
2023-06-11T09:23:11.088Z,7.46
2023-06-11T09:24:11.253Z,8.36
2023-06-11T09:25:11.659Z,7.76
2023-06-11T09:26:11.092Z,8.00
2023-06-11T09:27:12.093Z,8.52
2023-06-11T09:28:11.106Z,7.48
2023-06-11T09:29:11.092Z,7.26
2023-06-11T09:30:11.459Z,7.12
2023-06-11T09:31:11.093Z,6.72
2023-06-11T09:32:31.223Z,8.08
2023-06-11T09:33:19.143Z,6.92
2023-06-11T09:34:11.097Z,7.56
2023-06-11T09:35:13.099Z,8.26
2023-06-11T09:36:11.103Z,8.40
2023-06-11T09:37:13.095Z,7.68
2023-06-11T09:38:17.101Z,7.22
2023-06-11T09:39:11.130Z,7.22
2023-06-11T09:40:17.099Z,7.84
2023-06-11T09:41:11.098Z,7.78
2023-06-11T09:42:18.097Z,8.54
2023-06-11T09:43:11.099Z,8.30
2023-06-11T09:44:11.096Z,7.52
2023-06-11T09:45:15.093Z,9.16
2023-06-11T09:46:11.133Z,8.46
2023-06-11T09:47:11.101Z,9.08
2023-06-11T09:48:12.173Z,7.80
2023-06-11T09:49:11.094Z,8.22
2023-06-11T09:50:11.372Z,8.14
2023-06-11T09:51:11.148Z,8.34
2023-06-11T09:52:11.121Z,9.92
2023-06-11T09:53:12.113Z,8.36
2023-06-11T09:54:11.112Z,9.04
2023-06-11T09:55:11.101Z,9.44
2023-06-11T09:56:12.159Z,8.54
2023-06-11T09:57:11.101Z,8.76
2023-06-11T09:58:11.102Z,7.90
2023-06-11T09:59:11.105Z,8.64
2023-06-11T10:00:12.345Z,9.72
2023-06-11T10:01:11.086Z,9.90
2023-06-11T10:02:11.064Z,8.10
2023-06-11T10:03:11.131Z,9.64
2023-06-11T10:04:11.166Z,9.16
2023-06-11T10:05:11.111Z,10.08
2023-06-11T10:06:16.926Z,8.22
2023-06-11T10:07:11.064Z,8.60
2023-06-11T10:08:12.077Z,9.62
2023-06-11T10:09:13.074Z,8.18
2023-06-11T10:10:11.325Z,7.90
2023-06-11T10:11:11.063Z,8.34
2023-06-11T10:12:11.561Z,8.02
2023-06-11T10:13:11.075Z,8.80
2023-06-11T10:14:15.092Z,8.24
2023-06-11T10:15:13.070Z,8.74
2023-06-11T10:16:11.148Z,8.18
2023-06-11T10:17:11.067Z,9.54
2023-06-11T10:18:15.169Z,10.04
2023-06-11T10:19:12.085Z,9.58
2023-06-11T10:20:17.104Z,8.92
2023-06-11T10:21:11.073Z,8.88
2023-06-11T10:22:11.078Z,8.78
2023-06-11T10:23:12.087Z,8.64
2023-06-11T10:24:15.129Z,9.04
2023-06-11T10:25:11.079Z,8.90
2023-06-11T10:26:12.124Z,9.32
2023-06-11T10:27:13.073Z,9.22
2023-06-11T10:28:11.174Z,9.02
2023-06-11T10:29:13.083Z,8.08
2023-06-11T10:30:11.388Z,9.24
2023-06-11T10:31:11.074Z,8.66
2023-06-11T10:32:17.075Z,8.88
2023-06-11T10:33:11.139Z,8.10
2023-06-11T10:34:13.152Z,8.52
2023-06-11T10:35:19.126Z,8.04
2023-06-11T10:36:11.085Z,7.52
2023-06-11T10:37:11.086Z,8.06
2023-06-11T10:38:14.146Z,8.76
2023-06-11T10:39:11.088Z,8.22
2023-06-11T10:40:13.289Z,8.28
2023-06-11T10:41:11.078Z,8.80
2023-06-11T10:42:11.088Z,8.02
2023-06-11T10:43:19.076Z,8.18
2023-06-11T10:44:15.078Z,8.08
2023-06-11T10:45:11.076Z,7.70
2023-06-11T10:46:11.168Z,7.94
2023-06-11T10:47:11.117Z,8.58
2023-06-11T10:48:11.135Z,7.28
2023-06-11T10:49:15.089Z,7.52
2023-06-11T10:50:11.484Z,9.00
2023-06-11T10:51:15.080Z,8.10
2023-06-11T10:52:11.092Z,8.30
2023-06-11T10:53:13.114Z,9.36
2023-06-11T10:54:12.086Z,8.12
2023-06-11T10:55:11.269Z,8.60
2023-06-11T10:56:15.083Z,7.54
2023-06-11T10:57:11.078Z,9.06
2023-06-11T10:58:11.089Z,7.84
2023-06-11T10:59:13.088Z,7.92
2023-06-11T11:00:11.407Z,7.54
2023-06-11T11:01:11.102Z,7.16
2023-06-11T11:02:14.113Z,7.00
2023-06-11T11:03:11.155Z,7.72
2023-06-11T11:04:11.164Z,6.94
2023-06-11T11:05:11.514Z,7.52
2023-06-11T11:06:11.081Z,6.82
2023-06-11T11:07:15.087Z,7.68
2023-06-11T11:08:11.088Z,8.46
2023-06-11T11:09:11.080Z,7.14
2023-06-11T11:10:11.072Z,7.26
2023-06-11T11:11:11.091Z,7.68
2023-06-11T11:12:11.083Z,7.92
2023-06-11T11:13:11.093Z,8.18
2023-06-11T11:14:11.082Z,7.72
2023-06-11T11:15:11.293Z,6.70
2023-06-11T11:16:11.088Z,7.98
2023-06-11T11:17:11.193Z,7.04
2023-06-11T11:18:11.171Z,7.80
2023-06-11T11:19:12.140Z,7.84
2023-06-11T11:20:16.254Z,6.82
2023-06-11T11:21:11.085Z,7.54
2023-06-11T11:22:12.079Z,7.92
2023-06-11T11:23:11.080Z,6.92
2023-06-11T11:24:12.126Z,6.52
2023-06-11T11:25:11.422Z,7.74
2023-06-11T11:26:11.084Z,7.60
2023-06-11T11:27:11.088Z,8.00
2023-06-11T11:28:12.084Z,6.70
2023-06-11T11:29:11.082Z,8.20
2023-06-11T11:30:11.498Z,7.16
2023-06-11T11:31:11.078Z,6.52
2023-06-11T11:32:11.187Z,6.34
2023-06-11T11:33:11.119Z,7.14
2023-06-11T11:34:11.083Z,6.62
2023-06-11T11:35:11.081Z,6.96
2023-06-11T11:36:12.089Z,7.90
2023-06-11T11:37:11.087Z,6.94
2023-06-11T11:38:11.092Z,7.46
2023-06-11T11:39:13.087Z,7.10
2023-06-11T11:40:13.415Z,6.82
2023-06-11T11:41:11.083Z,6.28
2023-06-11T11:42:11.109Z,7.06
2023-06-11T11:43:13.098Z,8.14
2023-06-11T11:44:11.100Z,6.78
2023-06-11T11:45:13.116Z,7.62
2023-06-11T11:46:15.137Z,6.72
2023-06-11T11:47:11.084Z,7.56
2023-06-11T11:48:11.133Z,8.18
2023-06-11T11:49:11.104Z,7.22
2023-06-11T11:50:19.105Z,7.02
2023-06-11T11:51:11.090Z,7.44
2023-06-11T11:52:11.092Z,7.76
2023-06-11T11:53:11.089Z,7.30
2023-06-11T11:54:12.088Z,7.52
2023-06-11T11:55:11.088Z,6.04
2023-06-11T11:56:11.133Z,6.98
2023-06-11T11:57:12.084Z,6.86
2023-06-11T11:58:13.109Z,7.28
2023-06-11T11:59:17.097Z,6.26
2023-06-11T12:00:11.437Z,7.80
2023-06-11T12:01:17.097Z,7.76
2023-06-11T12:02:11.137Z,6.44
2023-06-11T12:03:11.213Z,7.50
2023-06-11T12:04:11.089Z,7.64
2023-06-11T12:05:15.098Z,7.90
2023-06-11T12:06:11.138Z,8.04
2023-06-11T12:07:16.085Z,7.42
2023-06-11T12:08:11.089Z,8.84
2023-06-11T12:09:11.086Z,8.62
2023-06-11T12:10:11.379Z,7.82
2023-06-11T12:11:11.097Z,7.84
2023-06-11T12:12:11.088Z,8.06
2023-06-11T12:13:11.082Z,7.82
2023-06-11T12:14:11.092Z,7.94
2023-06-11T12:15:11.080Z,9.10
2023-06-11T12:16:11.110Z,8.96
2023-06-11T12:17:15.091Z,8.68
2023-06-11T12:18:11.083Z,8.72
2023-06-11T12:19:23.427Z,8.42
2023-06-11T12:20:13.339Z,7.98
2023-06-11T12:21:11.083Z,8.02
2023-06-11T12:22:11.081Z,7.76
2023-06-11T12:23:11.087Z,8.48
2023-06-11T12:24:11.148Z,8.30
2023-06-11T12:25:11.126Z,7.96
2023-06-11T12:26:11.084Z,8.26
2023-06-11T12:27:12.836Z,8.18
2023-06-11T12:28:11.085Z,8.98
2023-06-11T12:29:11.085Z,9.40
2023-06-11T12:30:11.540Z,8.48
2023-06-11T12:31:11.083Z,9.38
2023-06-11T12:32:15.172Z,8.42
2023-06-11T12:33:11.145Z,8.20
2023-06-11T12:34:11.092Z,9.44
2023-06-11T12:35:11.086Z,10.34
2023-06-11T12:36:11.092Z,8.40
2023-06-11T12:37:11.084Z,8.56
2023-06-11T12:38:11.085Z,9.60
2023-06-11T12:39:11.084Z,9.28
2023-06-11T12:40:11.334Z,8.30
2023-06-11T12:41:11.083Z,8.78
2023-06-11T12:42:13.090Z,8.70
2023-06-11T12:43:11.083Z,8.38
2023-06-11T12:44:11.088Z,8.72
2023-06-11T12:45:11.086Z,9.00
2023-06-11T12:46:11.165Z,8.38
2023-06-11T12:47:11.089Z,8.16
2023-06-11T12:48:11.158Z,9.16
2023-06-11T12:49:11.088Z,8.94
2023-06-11T12:50:11.427Z,9.62
2023-06-11T12:51:11.087Z,8.74
2023-06-11T12:52:11.084Z,8.62
2023-06-11T12:53:11.096Z,9.02
2023-06-11T12:54:11.089Z,9.24
2023-06-11T12:55:11.101Z,8.90
2023-06-11T12:56:11.089Z,9.38
2023-06-11T12:57:11.084Z,9.40
2023-06-11T12:58:11.100Z,9.38
2023-06-11T12:59:11.102Z,10.14
2023-06-11T13:00:11.343Z,8.68
2023-06-11T13:01:11.093Z,9.06
2023-06-11T13:02:11.058Z,9.10
2023-06-11T13:03:11.130Z,8.34
2023-06-11T13:04:11.054Z,9.42
2023-06-11T13:05:11.045Z,9.32
2023-06-11T13:06:12.060Z,9.70
2023-06-11T13:07:11.041Z,9.64
2023-06-11T13:08:11.619Z,9.64
2023-06-11T13:09:11.040Z,9.08
2023-06-11T13:10:11.562Z,10.70
2023-06-11T13:11:11.036Z,10.88
2023-06-11T13:12:11.042Z,8.10
2023-06-11T13:13:11.043Z,9.92
2023-06-11T13:14:11.039Z,9.28